createdAt,value
2023-02-17T00:01:55.168Z,10.60
2023-02-17T00:04:23.542Z,11.40
2023-02-17T00:07:01.080Z,10.20
2023-02-17T00:09:29.144Z,11.70
2023-02-17T00:12:00.097Z,11.00
2023-02-17T00:14:31.441Z,9.30
2023-02-17T00:16:59.504Z,9.50
2023-02-17T00:19:28.084Z,9.20
2023-02-17T00:21:59.046Z,10.30
2023-02-17T00:24:29.653Z,11.30
2023-02-17T00:26:57.964Z,9.50
2023-02-17T00:29:27.485Z,9.60
2023-02-17T00:31:56.544Z,10.80
2023-02-17T00:34:25.288Z,9.20
2023-02-17T00:36:53.712Z,10.30
2023-02-17T00:39:21.979Z,8.00
2023-02-17T00:41:50.361Z,10.40
2023-02-17T00:44:20.993Z,7.90
2023-02-17T00:46:49.340Z,7.90
2023-02-17T00:49:20.781Z,8.20
2023-02-17T00:51:48.908Z,8.10
2023-02-17T00:54:18.410Z,8.70
2023-02-17T00:56:46.678Z,8.10
2023-02-17T00:59:14.955Z,8.10
2023-02-17T01:01:43.207Z,6.80
2023-02-17T01:04:11.726Z,8.00
2023-02-17T01:06:40.750Z,7.20
2023-02-17T01:09:13.387Z,8.20
2023-02-17T01:11:42.895Z,7.70
2023-02-17T01:14:13.512Z,8.10
2023-02-17T01:16:46.652Z,7.70
2023-02-17T01:19:18.577Z,7.70
2023-02-17T01:21:49.929Z,6.70
2023-02-17T01:24:18.331Z,9.10
2023-02-17T01:26:46.632Z,8.80
2023-02-17T01:29:15.087Z,8.40
2023-02-17T01:31:46.085Z,9.00
2023-02-17T01:34:14.389Z,9.50
2023-02-17T01:36:42.451Z,7.50
2023-02-17T01:41:43.212Z,7.50
2023-02-17T01:44:19.174Z,8.70
2023-02-17T01:46:58.970Z,8.00
2023-02-17T01:49:35.699Z,7.90
2023-02-17T01:52:11.776Z,8.00
2023-02-17T01:54:51.388Z,8.60
2023-02-17T01:57:24.377Z,7.80
2023-02-17T01:59:53.786Z,8.30
2023-02-17T02:04:53.509Z,9.80
2023-02-17T02:07:26.809Z,9.20
2023-02-17T02:09:58.078Z,9.30
2023-02-17T02:12:29.292Z,10.20
2023-02-17T02:15:01.355Z,10.10
2023-02-17T02:17:48.279Z,11.20
2023-02-17T02:20:41.342Z,9.40
2023-02-17T02:23:15.345Z,10.20
2023-02-17T02:25:46.098Z,10.10
2023-02-17T02:28:59.008Z,10.10
2023-02-17T02:31:53.426Z,9.10
2023-02-17T02:34:25.928Z,8.60
2023-02-17T02:37:04.179Z,10.00
2023-02-17T02:39:43.088Z,8.80
2023-02-17T02:42:16.520Z,10.20
2023-02-17T02:44:44.786Z,8.10
2023-02-17T02:47:46.845Z,9.70
2023-02-17T02:50:23.365Z,9.50
2023-02-17T02:53:42.542Z,9.40
2023-02-17T02:56:26.097Z,10.80
2023-02-17T02:58:57.375Z,10.50
2023-02-17T03:01:38.074Z,9.40
2023-02-17T03:04:17.796Z,9.90
2023-02-17T03:06:54.051Z,10.50
2023-02-17T03:09:26.190Z,9.50
2023-02-17T03:11:58.993Z,9.50
2023-02-17T03:14:29.223Z,9.50
2023-02-17T03:16:58.319Z,10.70
2023-02-17T03:19:28.543Z,9.90
2023-02-17T03:22:03.569Z,10.90
2023-02-17T03:24:35.035Z,10.70
2023-02-17T03:27:03.346Z,9.90
2023-02-17T03:29:31.597Z,8.40
2023-02-17T03:32:00.641Z,9.60
2023-02-17T03:36:57.237Z,9.00
2023-02-17T03:39:25.415Z,9.50
2023-02-17T03:41:53.891Z,10.80
2023-02-17T03:44:21.928Z,10.50
2023-02-17T03:46:50.036Z,10.80
2023-02-17T03:49:18.234Z,8.40
2023-02-17T03:51:46.696Z,10.80
2023-02-17T03:54:14.939Z,10.70
2023-02-17T03:56:43.240Z,9.70
2023-02-17T03:59:11.486Z,10.00
2023-02-17T04:01:40.195Z,7.30
2023-02-17T04:04:08.650Z,10.70
2023-02-17T04:06:37.408Z,11.00
2023-02-17T04:09:05.550Z,10.20
2023-02-17T04:11:33.719Z,7.30
2023-02-17T04:14:01.795Z,11.00
2023-02-17T04:16:29.965Z,9.30
2023-02-17T04:19:01.232Z,9.10
2023-02-17T04:21:29.480Z,9.90
2023-02-17T04:23:57.720Z,9.50
2023-02-17T04:26:25.929Z,10.50
2023-02-17T04:28:54.424Z,8.70
2023-02-17T04:31:23.218Z,10.10
2023-02-17T04:33:51.696Z,9.70
2023-02-17T04:36:20.069Z,9.70
2023-02-17T04:38:48.200Z,10.10
2023-02-17T04:41:16.878Z,9.50
2023-02-17T04:43:44.942Z,7.20
2023-02-17T04:46:13.423Z,11.10
2023-02-17T04:48:41.647Z,8.90
2023-02-17T04:51:09.889Z,9.00
2023-02-17T04:53:38.233Z,9.20
2023-02-17T04:56:07.294Z,10.30
2023-02-17T05:01:04.932Z,9.80
2023-02-17T05:03:33.263Z,9.50
2023-02-17T05:06:05.179Z,10.30
2023-02-17T05:08:33.713Z,9.70
2023-02-17T05:11:01.923Z,12.00
2023-02-17T05:13:30.576Z,9.20
2023-02-17T05:15:59.192Z,11.60
2023-02-17T05:18:27.528Z,12.60
2023-02-17T05:20:55.680Z,11.50
2023-02-17T05:23:24.419Z,9.90
2023-02-17T05:25:55.249Z,11.90
2023-02-17T05:28:23.470Z,11.50
2023-02-17T05:30:52.082Z,8.10
2023-02-17T05:33:23.333Z,13.40
2023-02-17T05:35:51.817Z,10.90
2023-02-17T05:38:20.306Z,10.20
2023-02-17T05:41:04.451Z,12.40
2023-02-17T05:43:33.025Z,11.60
2023-02-17T05:46:03.456Z,12.50
2023-02-17T05:48:52.054Z,13.20
2023-02-17T05:51:23.660Z,13.10
2023-02-17T05:53:51.945Z,12.20
2023-02-17T05:56:20.384Z,14.00
2023-02-17T05:58:48.607Z,13.70
2023-02-17T06:01:17.079Z,10.30
2023-02-17T06:03:47.840Z,12.60
2023-02-17T06:06:16.395Z,14.20
2023-02-17T06:08:44.584Z,12.10
2023-02-17T06:11:12.957Z,12.40
2023-02-17T06:13:41.073Z,13.80
2023-02-17T06:16:09.610Z,13.40
2023-02-17T06:18:38.101Z,13.80
2023-02-17T06:21:06.586Z,12.20
2023-02-17T06:23:34.748Z,15.50
2023-02-17T06:26:02.851Z,14.20
2023-02-17T06:28:31.098Z,12.60
2023-02-17T06:30:59.534Z,13.10
2023-02-17T06:33:27.879Z,13.00
2023-02-17T06:35:56.972Z,14.40
2023-02-17T06:38:25.602Z,15.70
2023-02-17T06:40:54.831Z,12.00
2023-02-17T06:45:51.756Z,13.90
2023-02-17T06:48:20.116Z,17.20
2023-02-17T06:50:50.311Z,15.10
2023-02-17T06:53:18.536Z,18.80
2023-02-17T06:55:46.752Z,20.10
2023-02-17T06:58:15.126Z,17.80
2023-02-17T07:00:43.459Z,20.10
2023-02-17T07:03:11.856Z,20.10
2023-02-17T07:05:40.478Z,18.70
2023-02-17T07:08:08.849Z,14.70
2023-02-17T07:10:38.155Z,14.90
2023-02-17T07:15:35.162Z,15.70
2023-02-17T07:18:06.390Z,17.30
2023-02-17T07:20:35.002Z,16.40
2023-02-17T07:23:03.224Z,20.20
2023-02-17T07:25:31.699Z,19.10
2023-02-17T07:28:00.234Z,19.30
2023-02-17T07:30:28.595Z,20.60
2023-02-17T07:32:57.365Z,21.00
2023-02-17T07:35:25.732Z,20.30
2023-02-17T07:37:53.911Z,22.60
2023-02-17T07:40:22.280Z,22.20
2023-02-17T07:42:50.659Z,22.50
2023-02-17T07:45:20.802Z,22.10
2023-02-17T07:50:17.614Z,20.00
2023-02-17T07:52:46.149Z,20.40
2023-02-17T07:55:14.722Z,22.80
2023-02-17T07:57:42.921Z,25.70
2023-02-17T08:00:12.248Z,24.40
2023-02-17T08:02:43.737Z,23.30
2023-02-17T08:05:12.315Z,24.80
2023-02-17T08:07:40.702Z,24.50
2023-02-17T08:10:31.207Z,23.60
2023-02-17T08:13:18.107Z,24.10
2023-02-17T08:15:46.700Z,23.50
2023-02-17T08:18:14.866Z,23.30
2023-02-17T08:20:43.176Z,24.80
2023-02-17T08:23:11.633Z,23.70
2023-02-17T08:25:39.804Z,25.40
2023-02-17T08:28:11.251Z,22.60
2023-02-17T08:30:39.513Z,24.40
2023-02-17T08:33:08.261Z,24.30
2023-02-17T08:35:36.594Z,23.70
2023-02-17T08:38:04.876Z,25.10
2023-02-17T08:40:33.009Z,23.40
2023-02-17T08:43:03.496Z,24.10
2023-02-17T08:45:32.295Z,25.00
2023-02-17T08:48:00.343Z,25.40
2023-02-17T08:50:29.333Z,24.00
2023-02-17T08:52:57.927Z,23.30
2023-02-17T08:55:30.451Z,22.80
2023-02-17T08:58:01.974Z,23.60
2023-02-17T09:00:30.184Z,23.80
2023-02-17T09:02:58.725Z,25.30
2023-02-17T09:05:26.969Z,22.70
2023-02-17T09:07:55.232Z,22.20
2023-02-17T09:10:24.047Z,22.50
2023-02-17T09:12:52.368Z,25.20
2023-02-17T09:15:20.550Z,24.00
2023-02-17T09:20:24.715Z,25.30
2023-02-17T09:22:53.504Z,25.30
2023-02-17T09:25:22.109Z,25.30
2023-02-17T09:27:50.910Z,23.30
2023-02-17T09:30:19.186Z,26.80
2023-02-17T09:32:47.467Z,24.20
2023-02-17T09:35:17.611Z,26.40
2023-02-17T09:37:46.259Z,25.70
2023-02-17T09:40:45.961Z,25.90
2023-02-17T09:43:17.012Z,25.60
2023-02-17T09:45:52.480Z,23.30
2023-02-17T09:48:29.943Z,27.20
2023-02-17T09:51:22.918Z,26.30
2023-02-17T09:54:10.645Z,25.20
2023-02-17T09:56:41.665Z,29.50
2023-02-17T09:59:20.070Z,31.70
2023-02-17T10:01:50.729Z,29.40
2023-02-17T10:04:33.181Z,30.90
2023-02-17T10:07:08.136Z,31.30
2023-02-17T10:09:47.724Z,30.30
2023-02-17T10:12:25.764Z,28.30
2023-02-17T10:15:01.821Z,27.60
2023-02-17T10:17:56.211Z,28.20
2023-02-17T10:20:32.756Z,28.90
2023-02-17T10:23:22.621Z,32.90
2023-02-17T10:26:24.912Z,32.20
2023-02-17T10:29:07.534Z,29.40
2023-02-17T10:31:46.567Z,25.80
2023-02-17T10:34:23.607Z,29.30
2023-02-17T10:37:12.608Z,27.80
2023-02-17T10:39:43.915Z,25.10
2023-02-17T10:42:25.919Z,26.70
2023-02-17T10:45:05.932Z,28.80
2023-02-17T10:47:37.030Z,25.30
2023-02-17T10:50:14.975Z,26.20
2023-02-17T10:52:43.293Z,28.90
2023-02-17T10:55:37.744Z,30.40
2023-02-17T10:58:22.956Z,26.90
2023-02-17T11:00:56.635Z,27.00
2023-02-17T11:03:29.805Z,26.70
2023-02-17T11:06:00.682Z,25.10
2023-02-17T11:08:34.707Z,21.30
2023-02-17T11:11:16.151Z,19.60
2023-02-17T11:13:59.002Z,22.40
2023-02-17T11:17:03.550Z,23.90
2023-02-17T11:19:35.396Z,22.40
2023-02-17T11:22:07.288Z,21.00
2023-02-17T11:24:35.912Z,21.70
2023-02-17T11:27:11.906Z,19.20
2023-02-17T11:29:40.125Z,16.10
2023-02-17T11:32:12.868Z,15.10
2023-02-17T11:34:44.166Z,17.10
2023-02-17T11:37:12.267Z,16.50
2023-02-17T11:39:41.829Z,15.70
2023-02-17T11:42:26.619Z,19.10
2023-02-17T11:44:57.094Z,21.00
2023-02-17T11:47:54.515Z,18.50
2023-02-17T11:50:42.176Z,17.60
2023-02-17T11:53:40.906Z,17.60
2023-02-17T11:56:18.658Z,18.20
2023-02-17T11:59:00.755Z,17.50
2023-02-17T12:02:17.162Z,15.40
2023-02-17T12:04:54.583Z,20.50
2023-02-17T12:07:25.397Z,17.70
2023-02-17T12:10:24.091Z,15.20
2023-02-17T12:12:58.709Z,18.60
2023-02-17T12:15:29.968Z,17.90
2023-02-17T12:18:46.569Z,18.30
2023-02-17T12:21:39.554Z,17.70
2023-02-17T12:24:20.806Z,15.00
2023-02-17T12:27:04.473Z,14.50
2023-02-17T12:29:58.520Z,15.30
2023-02-17T12:33:07.964Z,13.10
2023-02-17T12:35:53.394Z,12.50
2023-02-17T12:38:44.028Z,12.40
2023-02-17T12:41:21.537Z,11.70
2023-02-17T12:43:58.528Z,13.00
2023-02-17T12:46:37.306Z,13.20
2023-02-17T12:49:28.149Z,13.20
2023-02-17T12:52:01.579Z,11.90
2023-02-17T12:54:43.893Z,14.10
2023-02-17T12:57:44.549Z,13.00
2023-02-17T13:00:47.781Z,13.30
2023-02-17T13:03:16.057Z,13.60
2023-02-17T13:06:15.523Z,13.30
2023-02-17T13:08:55.527Z,12.70
2023-02-17T13:11:33.806Z,12.80
2023-02-17T13:14:27.204Z,16.10
2023-02-17T13:16:56.178Z,16.00
2023-02-17T13:19:29.483Z,14.70
2023-02-17T13:22:08.275Z,13.30
2023-02-17T13:24:39.930Z,14.50
2023-02-17T13:27:36.413Z,13.70
2023-02-17T13:30:10.305Z,12.40
2023-02-17T13:32:38.902Z,12.70
2023-02-17T13:35:27.356Z,12.10
2023-02-17T13:37:56.238Z,12.90
2023-02-17T13:40:30.550Z,11.50
2023-02-17T13:43:16.229Z,11.60
2023-02-17T13:45:50.406Z,10.90
2023-02-17T13:48:21.900Z,14.30
2023-02-17T13:50:56.114Z,12.30
2023-02-17T13:53:27.427Z,10.50
2023-02-17T13:55:58.769Z,10.00
2023-02-17T13:58:42.941Z,8.90
2023-02-17T14:01:18.091Z,11.70
2023-02-17T14:03:50.909Z,13.30
2023-02-17T14:06:25.421Z,12.10
2023-02-17T14:08:54.608Z,10.80
2023-02-17T14:11:33.118Z,10.20
2023-02-17T14:14:02.988Z,11.20
2023-02-17T14:16:36.864Z,11.10
2023-02-17T14:19:08.919Z,10.30
2023-02-17T14:21:46.092Z,8.50
2023-02-17T14:24:37.598Z,9.40
2023-02-17T14:27:09.012Z,9.60
2023-02-17T14:29:46.492Z,8.30
2023-02-17T14:32:32.390Z,8.70
2023-02-17T14:35:12.838Z,9.40
2023-02-17T14:37:42.665Z,8.70
2023-02-17T14:40:24.979Z,9.00
2023-02-17T14:42:53.096Z,9.70
2023-02-17T14:45:21.588Z,10.80
2023-02-17T14:47:49.652Z,10.60
2023-02-17T14:50:17.682Z,11.00
2023-02-17T14:52:48.356Z,11.40
2023-02-17T14:55:33.783Z,10.50
2023-02-17T14:58:02.665Z,8.00
2023-02-17T15:00:31.523Z,8.00
2023-02-17T15:02:59.660Z,9.60
2023-02-17T15:05:28.500Z,9.00
2023-02-17T15:07:56.766Z,8.80
2023-02-17T15:10:29.452Z,8.70
2023-02-17T15:12:57.612Z,7.50
2023-02-17T15:15:25.799Z,7.90
2023-02-17T15:17:53.784Z,7.60
2023-02-17T15:20:22.145Z,9.70
2023-02-17T15:22:52.952Z,8.70
2023-02-17T15:25:24.749Z,9.80
2023-02-17T15:27:53.423Z,10.20
2023-02-17T15:30:22.984Z,8.50
2023-02-17T15:32:51.472Z,9.00
2023-02-17T15:35:25.530Z,9.50
2023-02-17T15:37:56.570Z,10.10
2023-02-17T15:40:27.777Z,10.40
2023-02-17T15:42:57.897Z,9.40
2023-02-17T15:45:26.211Z,11.60
2023-02-17T15:48:13.332Z,10.20
2023-02-17T15:50:41.600Z,11.00
2023-02-17T15:53:10.500Z,8.70
2023-02-17T15:55:39.752Z,9.80
2023-02-17T16:00:39.350Z,8.30
2023-02-17T16:03:09.933Z,10.50
2023-02-17T16:05:38.128Z,10.10
2023-02-17T16:08:06.293Z,12.10
2023-02-17T16:10:36.169Z,12.50
2023-02-17T16:13:04.594Z,12.70
2023-02-17T16:15:33.287Z,26.70
2023-02-17T16:18:01.960Z,25.00
2023-02-17T16:20:35.630Z,17.00
2023-02-17T16:23:03.842Z,12.80
2023-02-17T16:25:32.039Z,13.70
2023-02-17T16:28:00.803Z,11.20
2023-02-17T16:30:35.991Z,13.20
2023-02-17T16:33:04.325Z,11.80
2023-02-17T16:35:33.249Z,11.90
2023-02-17T16:38:23.058Z,12.60
2023-02-17T16:40:53.434Z,13.30
2023-02-17T16:43:27.858Z,12.60
2023-02-17T16:46:02.202Z,14.40
2023-02-17T16:48:34.406Z,13.90
2023-02-17T16:51:02.823Z,14.20
2023-02-17T16:53:31.191Z,15.50
2023-02-17T16:55:59.364Z,17.40
2023-02-17T16:58:27.658Z,14.80
2023-02-17T17:00:56.583Z,17.60
2023-02-17T17:03:24.978Z,16.00
2023-02-17T17:05:53.389Z,15.90
2023-02-17T17:08:24.533Z,16.00
2023-02-17T17:10:52.651Z,14.20
2023-02-17T17:13:20.944Z,14.20
2023-02-17T17:15:49.363Z,14.50
2023-02-17T17:18:21.853Z,13.30
2023-02-17T17:20:50.842Z,12.60
2023-02-17T17:23:19.223Z,13.30
2023-02-17T17:25:48.635Z,12.30
2023-02-17T17:28:19.481Z,10.50
2023-02-17T17:30:48.546Z,14.50
2023-02-17T17:33:17.312Z,13.10
2023-02-17T17:35:45.884Z,13.90
2023-02-17T17:38:17.993Z,15.00
2023-02-17T17:40:56.944Z,15.10
2023-02-17T17:43:25.055Z,14.20
2023-02-17T17:45:54.842Z,10.80
2023-02-17T17:48:23.182Z,12.30
2023-02-17T17:50:51.460Z,11.80
2023-02-17T17:53:19.836Z,11.30
2023-02-17T17:55:48.337Z,12.20
2023-02-17T17:58:17.428Z,12.10
2023-02-17T18:00:46.203Z,12.10
2023-02-17T18:03:14.494Z,12.70
2023-02-17T18:05:43.044Z,11.70
2023-02-17T18:08:11.485Z,15.20
2023-02-17T18:10:42.046Z,17.40
2023-02-17T18:13:12.469Z,18.30
2023-02-17T18:15:41.638Z,18.90
2023-02-17T18:18:11.890Z,18.70
2023-02-17T18:20:40.479Z,18.50
2023-02-17T18:23:08.886Z,20.40
2023-02-17T18:25:37.069Z,19.50
2023-02-17T18:28:05.549Z,17.20
2023-02-17T18:30:33.782Z,16.90
2023-02-17T18:33:02.107Z,16.20
2023-02-17T18:35:33.700Z,12.80
2023-02-17T18:38:02.902Z,12.90
2023-02-17T18:40:31.539Z,13.40
2023-02-17T18:42:59.907Z,11.80
2023-02-17T18:45:28.039Z,13.50
2023-02-17T18:47:56.419Z,17.60
2023-02-17T18:50:26.180Z,23.50
2023-02-17T18:52:54.171Z,19.80
2023-02-17T18:55:22.279Z,19.90
2023-02-17T18:57:51.033Z,19.50
2023-02-17T19:00:19.494Z,17.80
2023-02-17T19:02:47.705Z,15.20
2023-02-17T19:05:17.723Z,15.00
2023-02-17T19:07:46.157Z,14.10
2023-02-17T19:10:15.366Z,14.30
2023-02-17T19:12:43.448Z,15.90
2023-02-17T19:15:13.900Z,13.90
2023-02-17T19:17:42.242Z,14.40
2023-02-17T19:20:11.024Z,17.50
2023-02-17T19:22:39.201Z,17.60
2023-02-17T19:25:08.416Z,16.10
2023-02-17T19:27:40.465Z,15.80
2023-02-17T19:30:10.653Z,14.50
2023-02-17T19:32:38.987Z,15.20
2023-02-17T19:35:09.985Z,16.10
2023-02-17T19:37:39.489Z,16.60
2023-02-17T19:40:08.113Z,16.50
2023-02-17T19:42:36.983Z,17.30
2023-02-17T19:45:05.397Z,17.40
2023-02-17T19:47:33.540Z,18.20
2023-02-17T19:50:01.739Z,17.40
2023-02-17T19:52:30.297Z,14.30
2023-02-17T19:54:58.398Z,17.10
2023-02-17T19:57:26.982Z,17.20
2023-02-17T19:59:55.127Z,15.80
2023-02-17T20:02:23.723Z,16.70
2023-02-17T20:04:51.987Z,13.60
2023-02-17T20:07:20.177Z,14.00
2023-02-17T20:09:48.444Z,14.30
2023-02-17T20:12:17.768Z,12.20
2023-02-17T20:14:45.886Z,15.50
2023-02-17T20:17:15.223Z,17.70
2023-02-17T20:19:43.609Z,16.90
2023-02-17T20:22:12.187Z,18.80
2023-02-17T20:24:42.107Z,17.40
2023-02-17T20:27:11.078Z,13.90
2023-02-17T20:29:39.575Z,12.40
2023-02-17T20:32:08.570Z,11.50
2023-02-17T20:34:41.770Z,13.30
2023-02-17T20:37:10.453Z,11.50
2023-02-17T20:39:40.254Z,14.50
2023-02-17T20:42:09.150Z,13.80
2023-02-17T20:44:37.349Z,13.60
2023-02-17T20:47:05.673Z,18.60
2023-02-17T20:49:34.076Z,18.90
2023-02-17T20:52:02.365Z,16.70
2023-02-17T20:54:30.948Z,22.70
2023-02-17T20:57:01.182Z,19.30
2023-02-17T20:59:29.714Z,17.90
2023-02-17T21:01:58.140Z,20.20
2023-02-17T21:04:26.260Z,19.30
2023-02-17T21:06:54.564Z,26.60
2023-02-17T21:09:23.365Z,26.70
2023-02-17T21:11:51.402Z,24.70
2023-02-17T21:14:19.622Z,25.10
2023-02-17T21:16:47.858Z,24.60
2023-02-17T21:19:16.695Z,22.70
2023-02-17T21:21:47.947Z,22.10
2023-02-17T21:24:16.310Z,20.10
2023-02-17T21:26:44.681Z,19.10
2023-02-17T21:29:13.275Z,20.00
2023-02-17T21:31:44.271Z,22.00
2023-02-17T21:34:12.681Z,26.90
2023-02-17T21:36:40.768Z,24.70
2023-02-17T21:39:09.143Z,23.40
2023-02-17T21:41:41.464Z,17.50
2023-02-17T21:44:31.468Z,17.10
2023-02-17T21:46:59.597Z,21.30
2023-02-17T21:49:27.741Z,23.30
2023-02-17T21:51:55.928Z,18.00
2023-02-17T21:54:24.290Z,23.50
2023-02-17T21:56:52.735Z,24.20
2023-02-17T21:59:21.057Z,21.30
2023-02-17T22:01:49.427Z,25.50
2023-02-17T22:04:18.245Z,26.80
2023-02-17T22:06:46.669Z,39.90
2023-02-17T22:09:18.071Z,43.30
2023-02-17T22:11:47.150Z,35.10
2023-02-17T22:14:18.456Z,35.10
2023-02-17T22:16:47.821Z,27.60
2023-02-17T22:21:46.351Z,29.20
2023-02-17T22:24:15.520Z,27.90
2023-02-17T22:26:43.567Z,41.80
2023-02-17T22:29:11.850Z,42.60
2023-02-17T22:31:40.168Z,34.80
2023-02-17T22:34:10.112Z,42.90
2023-02-17T22:36:38.717Z,40.30
2023-02-17T22:39:08.330Z,35.00
2023-02-17T22:41:36.811Z,35.40
2023-02-17T22:44:05.641Z,27.70
2023-02-17T22:46:34.595Z,27.10
2023-02-17T22:49:02.878Z,29.50
2023-02-17T22:51:35.447Z,29.00
2023-02-17T22:54:04.765Z,28.00
2023-02-17T22:59:04.060Z,26.20
2023-02-17T23:01:34.641Z,30.20
2023-02-17T23:04:03.762Z,25.50
2023-02-17T23:06:35.113Z,25.30
2023-02-17T23:09:05.321Z,25.30
2023-02-17T23:11:52.415Z,27.90
2023-02-17T23:14:37.484Z,31.90
2023-02-17T23:17:11.240Z,33.00
2023-02-17T23:19:41.400Z,29.80
2023-02-17T23:22:16.897Z,31.50
2023-02-17T23:24:48.694Z,27.60
2023-02-17T23:27:16.960Z,33.60
2023-02-17T23:29:45.049Z,29.80
2023-02-17T23:32:13.276Z,30.50
2023-02-17T23:34:41.510Z,31.90
2023-02-17T23:37:09.565Z,31.80
2023-02-17T23:39:38.420Z,32.70
2023-02-17T23:42:06.735Z,28.50
2023-02-17T23:44:34.915Z,28.40
2023-02-17T23:47:03.904Z,27.40
2023-02-17T23:49:32.070Z,30.70
2023-02-17T23:52:00.553Z,31.40
2023-02-17T23:54:29.046Z,32.70
2023-02-17T23:56:57.207Z,29.40
2023-02-17T23:59:25.330Z,27.00
